PWSweather.com
Personal Weather Stations
Station Observations
WODONGA
Wodonga, WodongaAU 3690

WodongaWodongaAU 3690

Lat: -36.121, Lon: 146.87

Elevation: 541

Station Type: Weather Station

http://www.wodongaweather.net

Latest ConditionsUpdated 4:50:02 PM GMT+10:10 Saturday, Oct 1, 2016
Currently Today's Max Today's Min Today's Average
Temperature 53.2°F11.8°C 56.1°F13.4°C 49.5°F9.7°C 52.4°F11.3°C
Dew Point 49.2°F9.6°C 51.4°F10.8°C 48.4°F9.1°C 49.4°F9.7°C
Winds 6.7 mph NW10.8 kmh NW 12.9 mph WNW20.8 kmh WNW - 9.2 mph 14.8 kmh
Wind Gusts 7.6 mph12.2 kmh 19.7 mph31.7 kmh - -
Humidity 86% 97% 81% 90%
Pressure 29.77 in1008.1 mb 29.77 in1008.1 mb 29.71 in1006.1 mb -
Precipitation - 0.23 in5.8 mm - -
Hour Temp Dew Point Humidity Winds Wind Gusts Pressure Precip Precip Rate Daily Precip Total
04:50 PM 53.2°F11.8°C 49.2°F9.6°C 86% 6.7 mph NW10.8 kmh NW 7.6 mph12.2 kmh 29.77 in1008.1 mb 0.00 in0.0 mm 0.00 in0.0 mm 0.23 in5.8 mm
04:45 PM 53.4°F11.9°C 49.0°F9.4°C 85% 6.1 mph NW9.8 kmh NW 7.6 mph12.2 kmh 29.77 in1008.1 mb 0.00 in0.0 mm 0.00 in0.0 mm 0.23 in5.8 mm
04:40 PM 53.8°F12.1°C 49.4°F9.7°C 85% 5.8 mph NW9.3 kmh NW 7.6 mph12.2 kmh 29.77 in1008.1 mb 0.00 in0.0 mm 0.00 in0.0 mm 0.23 in5.8 mm
04:35 PM 54.0°F12.2°C 49.2°F9.6°C 84% 5.8 mph NW9.3 kmh NW 7.6 mph12.2 kmh 29.77 in1008.1 mb 0.00 in0.0 mm 0.00 in0.0 mm 0.23 in5.8 mm
04:30 PM 54.1°F12.3°C 49.1°F9.5°C 83% 6.3 mph NW10.1 kmh NW 8.3 mph13.4 kmh 29.76 in1007.8 mb 0.00 in0.0 mm 0.00 in0.0 mm 0.23 in5.8 mm
04:25 PM 54.3°F12.4°C 49.3°F9.6°C 83% 6.7 mph NW10.8 kmh NW 8.3 mph13.4 kmh 29.76 in1007.8 mb 0.00 in0.0 mm 0.00 in0.0 mm 0.23 in5.8 mm
04:20 PM 54.5°F12.5°C 49.1°F9.5°C 82% 7.1 mph NW11.4 kmh NW 9.2 mph14.8 kmh 29.76 in1007.8 mb 0.00 in0.0 mm 0.00 in0.0 mm 0.23 in5.8 mm
04:15 PM 54.7°F12.6°C 49.3°F9.6°C 82% 7.5 mph NW12.1 kmh NW 12.1 mph19.5 kmh 29.76 in1007.8 mb 0.00 in0.0 mm 0.00 in0.0 mm 0.23 in5.8 mm
04:10 PM 54.7°F12.6°C 49.3°F9.6°C 82% 7.0 mph NW11.3 kmh NW 12.1 mph19.5 kmh 29.76 in1007.8 mb 0.00 in0.0 mm 0.00 in0.0 mm 0.23 in5.8 mm
04:05 PM 54.9°F12.7°C 49.5°F9.7°C 82% 6.9 mph NW11.1 kmh NW 9.2 mph14.8 kmh 29.76 in1007.8 mb 0.00 in0.0 mm 0.00 in0.0 mm 0.23 in5.8 mm
04:00 PM 55.0°F12.8°C 49.7°F9.8°C 82% 7.9 mph NW12.7 kmh NW 10.7 mph17.2 kmh 29.75 in1007.5 mb 0.00 in0.0 mm 0.00 in0.0 mm 0.23 in5.8 mm
03:55 PM 55.4°F13.0°C 49.7°F9.8°C 81% 8.9 mph WNW14.3 kmh WNW 13.0 mph20.9 kmh 29.76 in1007.8 mb 0.00 in0.0 mm 0.00 in0.0 mm 0.23 in5.8 mm
03:50 PM 55.6°F13.1°C 49.9°F9.9°C 81% 9.4 mph WNW15.1 kmh WNW 13.0 mph20.9 kmh 29.75 in1007.5 mb 0.00 in0.0 mm 0.00 in0.0 mm 0.23 in5.8 mm
03:45 PM 55.9°F13.3°C 50.2°F10.1°C 81% 9.4 mph NW15.1 kmh NW 12.1 mph19.5 kmh 29.75 in1007.5 mb 0.00 in0.0 mm 0.00 in0.0 mm 0.23 in5.8 mm
03:40 PM 55.9°F13.3°C 50.5°F10.3°C 82% 9.4 mph NW15.1 kmh NW 11.4 mph18.3 kmh 29.75 in1007.5 mb 0.00 in0.0 mm 0.00 in0.0 mm 0.23 in5.8 mm
03:35 PM 55.9°F13.3°C 50.5°F10.3°C 82% 9.0 mph NW14.5 kmh NW 10.7 mph17.2 kmh 29.75 in1007.5 mb 0.00 in0.0 mm 0.00 in0.0 mm 0.23 in5.8 mm
03:30 PM 56.1°F13.4°C 51.4°F10.8°C 84% 7.9 mph NW12.7 kmh NW 10.7 mph17.2 kmh 29.75 in1007.5 mb 0.00 in0.0 mm 0.00 in0.0 mm 0.23 in5.8 mm
03:25 PM 55.0°F12.8°C 50.9°F10.5°C 86% 7.3 mph WNW11.7 kmh WNW 9.8 mph15.8 kmh 29.75 in1007.5 mb 0.00 in0.0 mm 0.00 in0.0 mm 0.23 in5.8 mm
03:20 PM 54.0°F12.2°C 49.9°F9.9°C 86% 7.5 mph WNW12.1 kmh WNW 9.8 mph15.8 kmh 29.75 in1007.5 mb 0.00 in0.0 mm 0.00 in0.0 mm 0.23 in5.8 mm
03:15 PM 53.4°F11.9°C 49.7°F9.8°C 87% 6.7 mph WNW10.8 kmh WNW 9.8 mph15.8 kmh 29.75 in1007.5 mb 0.00 in0.0 mm 0.00 in0.0 mm 0.23 in5.8 mm
03:10 PM 53.1°F11.7°C 49.3°F9.6°C 87% 6.3 mph NW10.1 kmh NW 9.2 mph14.8 kmh 29.75 in1007.5 mb 0.00 in0.0 mm 0.00 in0.0 mm 0.23 in5.8 mm
03:05 PM 53.2°F11.8°C 49.5°F9.7°C 87% 6.9 mph WNW11.1 kmh WNW 9.2 mph14.8 kmh 29.75 in1007.5 mb 0.00 in0.0 mm 0.00 in0.0 mm 0.23 in5.8 mm
03:00 PM 53.1°F11.7°C 49.3°F9.6°C 87% 7.3 mph NW11.7 kmh NW 9.8 mph15.8 kmh 29.75 in1007.5 mb 0.00 in0.0 mm 0.00 in0.0 mm 0.23 in5.8 mm
02:55 PM 53.1°F11.7°C 49.3°F9.6°C 87% 8.0 mph NW12.9 kmh NW 9.8 mph15.8 kmh 29.74 in1007.1 mb 0.00 in0.0 mm 0.00 in0.0 mm 0.23 in5.8 mm
02:50 PM 53.2°F11.8°C 49.5°F9.7°C 87% 8.9 mph NW14.3 kmh NW 13.6 mph21.9 kmh 29.75 in1007.5 mb 0.00 in0.0 mm 0.00 in0.0 mm 0.23 in5.8 mm
02:45 PM 53.2°F11.8°C 49.5°F9.7°C 87% 9.4 mph WNW15.1 kmh WNW 13.6 mph21.9 kmh 29.75 in1007.5 mb 0.00 in0.0 mm 0.00 in0.0 mm 0.23 in5.8 mm
02:40 PM 53.1°F11.7°C 49.3°F9.6°C 87% 11.8 mph WNW19.0 kmh WNW 19.7 mph31.7 kmh 29.74 in1007.1 mb 0.00 in0.0 mm 0.00 in0.0 mm 0.23 in5.8 mm
02:35 PM 52.9°F11.6°C 49.1°F9.5°C 87% 12.7 mph NW20.4 kmh NW 19.7 mph31.7 kmh 29.75 in1007.5 mb 0.00 in0.0 mm 0.00 in0.0 mm 0.23 in5.8 mm
02:30 PM 53.1°F11.7°C 49.6°F9.8°C 88% 10.1 mph NW16.3 kmh NW 14.5 mph23.3 kmh 29.74 in1007.1 mb 0.00 in0.0 mm 0.00 in0.0 mm 0.23 in5.8 mm
02:25 PM 52.9°F11.6°C 49.7°F9.8°C 89% 9.0 mph NW14.5 kmh NW 14.5 mph23.3 kmh 29.74 in1007.1 mb 0.00 in0.0 mm 0.00 in0.0 mm 0.23 in5.8 mm
02:20 PM 52.7°F11.5°C 49.6°F9.8°C 89% 8.9 mph WNW14.3 kmh WNW 12.1 mph19.5 kmh 29.74 in1007.1 mb 0.00 in0.0 mm 0.00 in0.0 mm 0.23 in5.8 mm
02:15 PM 52.7°F11.5°C 49.6°F9.8°C 89% 8.6 mph NW13.8 kmh NW 12.1 mph19.5 kmh 29.74 in1007.1 mb 0.00 in0.0 mm 0.00 in0.0 mm 0.23 in5.8 mm
02:10 PM 52.7°F11.5°C 49.6°F9.8°C 89% 8.4 mph NW13.5 kmh NW 9.8 mph15.8 kmh 29.74 in1007.1 mb 0.00 in0.0 mm 0.00 in0.0 mm 0.23 in5.8 mm
02:05 PM 52.7°F11.5°C 49.6°F9.8°C 89% 9.9 mph NW15.9 kmh NW 15.9 mph25.6 kmh 29.74 in1007.1 mb 0.00 in0.0 mm 0.00 in0.0 mm 0.23 in5.8 mm
02:00 PM 52.7°F11.5°C 49.9°F9.9°C 90% 11.5 mph NW18.5 kmh NW 15.9 mph25.6 kmh 29.74 in1007.1 mb 0.00 in0.0 mm 0.00 in0.0 mm 0.23 in5.8 mm
01:55 PM 52.5°F11.4°C 50.0°F10.0°C 91% 11.0 mph WNW17.7 kmh WNW 14.5 mph23.3 kmh 29.74 in1007.1 mb 0.00 in0.0 mm 0.00 in0.0 mm 0.23 in5.8 mm
01:50 PM 52.2°F11.2°C 49.9°F9.9°C 92% 11.1 mph WNW17.9 kmh WNW 13.6 mph21.9 kmh 29.74 in1007.1 mb 0.00 in0.0 mm 0.00 in0.0 mm 0.23 in5.8 mm
01:45 PM 51.8°F11.0°C 49.6°F9.8°C 92% 10.0 mph WNW16.1 kmh WNW 13.6 mph21.9 kmh 29.74 in1007.1 mb 0.00 in0.0 mm 0.00 in0.0 mm 0.23 in5.8 mm
01:40 PM 51.6°F10.9°C 49.4°F9.7°C 92% 8.9 mph NW14.3 kmh NW 12.1 mph19.5 kmh 29.74 in1007.1 mb 0.00 in0.0 mm 0.00 in0.0 mm 0.23 in5.8 mm
01:35 PM 51.8°F11.0°C 49.6°F9.8°C 92% 10.4 mph NW16.7 kmh NW 17.4 mph28.0 kmh 29.74 in1007.1 mb 0.00 in0.0 mm 0.00 in0.0 mm 0.23 in5.8 mm
01:30 PM 52.0°F11.1°C 50.0°F10.0°C 93% 9.5 mph NW15.3 kmh NW 17.4 mph28.0 kmh 29.74 in1007.1 mb 0.00 in0.0 mm 0.00 in0.0 mm 0.23 in5.8 mm
01:25 PM 52.0°F11.1°C 50.3°F10.2°C 94% 7.1 mph WNW11.4 kmh WNW 9.2 mph14.8 kmh 29.74 in1007.1 mb 0.00 in0.0 mm 0.00 in0.0 mm 0.23 in5.8 mm
01:20 PM 51.6°F10.9°C 50.0°F10.0°C 94% 6.5 mph WNW10.5 kmh WNW 9.8 mph15.8 kmh 29.74 in1007.1 mb 0.00 in0.0 mm 0.00 in0.0 mm 0.23 in5.8 mm
01:15 PM 51.4°F10.8°C 49.8°F9.9°C 94% 8.0 mph NW12.9 kmh NW 10.7 mph17.2 kmh 29.74 in1007.1 mb 0.00 in0.0 mm 0.00 in0.0 mm 0.23 in5.8 mm
01:10 PM 51.4°F10.8°C 49.5°F9.7°C 93% 8.5 mph NW13.7 kmh NW 10.7 mph17.2 kmh 29.74 in1007.1 mb 0.00 in0.0 mm 0.00 in0.0 mm 0.23 in5.8 mm
01:05 PM 51.4°F10.8°C 49.5°F9.7°C 93% 7.8 mph NW12.6 kmh NW 9.8 mph15.8 kmh 29.74 in1007.1 mb 0.00 in0.0 mm 0.00 in0.0 mm 0.23 in5.8 mm
01:00 PM 51.4°F10.8°C 49.5°F9.7°C 93% 9.0 mph WNW14.5 kmh WNW 13.6 mph21.9 kmh 29.73 in1006.8 mb 0.00 in0.0 mm 0.00 in0.0 mm 0.23 in5.8 mm
12:55 PM 51.8°F11.0°C 49.3°F9.6°C 91% 10.0 mph WNW16.1 kmh WNW 13.6 mph21.9 kmh 29.73 in1006.8 mb 0.00 in0.0 mm 0.00 in0.0 mm 0.23 in5.8 mm
12:50 PM 52.5°F11.4°C 49.1°F9.5°C 88% 10.7 mph NW17.2 kmh NW 15.2 mph24.5 kmh 29.73 in1006.8 mb 0.00 in0.0 mm 0.00 in0.0 mm 0.23 in5.8 mm
12:45 PM 52.7°F11.5°C 48.9°F9.4°C 87% 11.5 mph NW18.5 kmh NW 15.2 mph24.5 kmh 29.73 in1006.8 mb 0.00 in0.0 mm 0.00 in0.0 mm 0.23 in5.8 mm
12:40 PM 52.5°F11.4°C 49.1°F9.5°C 88% 10.4 mph NW16.7 kmh NW 15.2 mph24.5 kmh 29.73 in1006.8 mb 0.00 in0.0 mm 0.00 in0.0 mm 0.23 in5.8 mm
12:35 PM 52.3°F11.3°C 49.2°F9.6°C 89% 9.9 mph WNW15.9 kmh WNW 13.0 mph20.9 kmh 29.73 in1006.8 mb 0.00 in0.0 mm 0.00 in0.0 mm 0.23 in5.8 mm
12:30 PM 52.2°F11.2°C 49.0°F9.4°C 89% 9.5 mph WNW15.3 kmh WNW 13.0 mph20.9 kmh 29.73 in1006.8 mb 0.00 in0.0 mm 0.00 in0.0 mm 0.23 in5.8 mm
12:25 PM 52.2°F11.2°C 49.0°F9.4°C 89% 7.3 mph W11.7 kmh W 9.8 mph15.8 kmh 29.73 in1006.8 mb 0.00 in0.0 mm 0.00 in0.0 mm 0.23 in5.8 mm
12:20 PM 52.0°F11.1°C 49.1°F9.5°C 90% 8.4 mph NW13.5 kmh NW 13.0 mph20.9 kmh 29.73 in1006.8 mb 0.00 in0.0 mm 0.00 in0.0 mm 0.23 in5.8 mm
12:15 PM 51.8°F11.0°C 49.0°F9.4°C 90% 10.2 mph WNW16.4 kmh WNW 13.6 mph21.9 kmh 29.73 in1006.8 mb 0.00 in0.0 mm 0.00 in0.0 mm 0.23 in5.8 mm
12:10 PM 51.8°F11.0°C 49.0°F9.4°C 90% 11.2 mph WNW18.0 kmh WNW 13.6 mph21.9 kmh 29.73 in1006.8 mb 0.00 in0.0 mm 0.00 in0.0 mm 0.23 in5.8 mm
12:05 PM 51.8°F11.0°C 49.0°F9.4°C 90% 11.1 mph NW17.9 kmh NW 13.6 mph21.9 kmh 29.73 in1006.8 mb 0.00 in0.0 mm 0.00 in0.0 mm 0.23 in5.8 mm
12:00 PM 52.0°F11.1°C 49.4°F9.7°C 91% 9.2 mph NW14.8 kmh NW 13.6 mph21.9 kmh 29.73 in1006.8 mb 0.00 in0.0 mm 0.00 in0.0 mm 0.23 in5.8 mm
11:55 AM 52.2°F11.2°C 49.9°F9.9°C 92% 7.9 mph WNW12.7 kmh WNW 10.7 mph17.2 kmh 29.73 in1006.8 mb 0.00 in0.0 mm 0.00 in0.0 mm 0.23 in5.8 mm
11:50 AM 51.8°F11.0°C 49.8°F9.9°C 93% 8.5 mph WNW13.7 kmh WNW 12.1 mph19.5 kmh 29.73 in1006.8 mb 0.00 in0.0 mm 0.00 in0.0 mm 0.23 in5.8 mm
11:45 AM 51.4°F10.8°C 49.5°F9.7°C 93% 9.6 mph NW15.4 kmh NW 12.1 mph19.5 kmh 29.73 in1006.8 mb 0.00 in0.0 mm 0.00 in0.0 mm 0.23 in5.8 mm
11:40 AM 51.1°F10.6°C 49.4°F9.7°C 94% 9.9 mph NW15.9 kmh NW 13.0 mph20.9 kmh 29.73 in1006.8 mb 0.00 in0.0 mm 0.00 in0.0 mm 0.23 in5.8 mm
11:35 AM 50.7°F10.4°C 49.1°F9.5°C 94% 11.5 mph WNW18.5 kmh WNW 15.9 mph25.6 kmh 29.73 in1006.8 mb 0.00 in0.0 mm 0.00 in0.0 mm 0.23 in5.8 mm
11:30 AM 50.7°F10.4°C 49.1°F9.5°C 94% 12.9 mph WNW20.8 kmh WNW 18.3 mph29.5 kmh 29.73 in1006.8 mb 0.00 in0.0 mm 0.00 in0.0 mm 0.23 in5.8 mm
11:25 AM 50.9°F10.5°C 49.0°F9.4°C 93% 11.8 mph NW19.0 kmh NW 18.3 mph29.5 kmh 29.73 in1006.8 mb 0.00 in0.0 mm 0.00 in0.0 mm 0.23 in5.8 mm
11:20 AM 51.3°F10.7°C 49.3°F9.6°C 93% 9.7 mph NW15.6 kmh NW 13.0 mph20.9 kmh 29.72 in1006.4 mb 0.00 in0.0 mm 0.00 in0.0 mm 0.23 in5.8 mm
11:15 AM 51.4°F10.8°C 49.2°F9.6°C 92% 9.6 mph WNW15.4 kmh WNW 13.0 mph20.9 kmh 29.72 in1006.4 mb 0.00 in0.0 mm 0.00 in0.0 mm 0.23 in5.8 mm
11:10 AM 51.1°F10.6°C 49.1°F9.5°C 93% 10.3 mph WNW16.6 kmh WNW 13.0 mph20.9 kmh 29.72 in1006.4 mb 0.00 in0.0 mm 0.00 in0.0 mm 0.23 in5.8 mm
11:05 AM 50.7°F10.4°C 48.8°F9.3°C 93% 10.0 mph W16.1 kmh W 13.0 mph20.9 kmh 29.72 in1006.4 mb 0.00 in0.0 mm 0.00 in0.0 mm 0.23 in5.8 mm
11:00 AM 50.7°F10.4°C 48.8°F9.3°C 93% 9.9 mph W15.9 kmh W 13.0 mph20.9 kmh 29.72 in1006.4 mb 0.00 in0.0 mm 0.00 in0.0 mm 0.23 in5.8 mm
10:55 AM 50.5°F10.3°C 48.9°F9.4°C 94% 9.5 mph W15.3 kmh W 13.0 mph20.9 kmh 29.72 in1006.4 mb 0.00 in0.0 mm 0.00 in0.0 mm 0.23 in5.8 mm
10:50 AM 50.4°F10.2°C 48.7°F9.3°C 94% 10.3 mph WNW16.6 kmh WNW 15.9 mph25.6 kmh 29.72 in1006.4 mb 0.00 in0.0 mm 0.00 in0.0 mm 0.23 in5.8 mm
10:45 AM 50.2°F10.1°C 48.5°F9.2°C 94% 10.8 mph WNW17.4 kmh WNW 15.9 mph25.6 kmh 29.73 in1006.8 mb 0.00 in0.0 mm 0.00 in0.0 mm 0.23 in5.8 mm
10:40 AM 50.0°F10.0°C 48.6°F9.2°C 95% 12.4 mph WNW20.0 kmh WNW 17.4 mph28.0 kmh 29.72 in1006.4 mb 0.00 in0.0 mm 0.00 in0.0 mm 0.23 in5.8 mm
10:35 AM 50.0°F10.0°C 48.6°F9.2°C 95% 12.8 mph NW20.6 kmh NW 17.4 mph28.0 kmh 29.72 in1006.4 mb 0.00 in0.0 mm 0.00 in0.0 mm 0.23 in5.8 mm
10:30 AM 49.8°F9.9°C 48.7°F9.3°C 96% 9.9 mph NW15.9 kmh NW 17.4 mph28.0 kmh 29.72 in1006.4 mb 0.00 in0.0 mm 0.00 in0.0 mm 0.23 in5.8 mm
10:25 AM 49.8°F9.9°C 49.0°F9.4°C 97% 9.1 mph W14.6 kmh W 13.0 mph20.9 kmh 29.72 in1006.4 mb 0.00 in0.0 mm 0.00 in0.0 mm 0.23 in5.8 mm
10:20 AM 49.6°F9.8°C 48.8°F9.3°C 97% 9.1 mph W14.6 kmh W 13.0 mph20.9 kmh 29.71 in1006.1 mb 0.00 in0.0 mm 0.00 in0.0 mm 0.23 in5.8 mm
10:15 AM 49.8°F9.9°C 49.0°F9.4°C 97% 9.0 mph WNW14.5 kmh WNW 12.1 mph19.5 kmh 29.72 in1006.4 mb 0.00 in0.0 mm 0.00 in0.0 mm 0.23 in5.8 mm
10:10 AM 49.6°F9.8°C 48.8°F9.3°C 97% 11.6 mph WNW18.7 kmh WNW 16.8 mph27.0 kmh 29.71 in1006.1 mb 0.00 in0.0 mm 0.00 in0.0 mm 0.23 in5.8 mm
10:05 AM 49.5°F9.7°C 48.4°F9.1°C 96% 11.7 mph W18.8 kmh W 16.8 mph27.0 kmh 29.71 in1006.1 mb 0.00 in0.0 mm 0.00 in0.0 mm 0.23 in5.8 mm
10:00 AM 49.6°F9.8°C 48.8°F9.3°C 97% 9.9 mph WNW15.9 kmh WNW 14.5 mph23.3 kmh 29.71 in1006.1 mb 0.00 in0.0 mm 0.00 in0.0 mm 0.23 in5.8 mm
09:55 AM 49.5°F9.7°C 48.6°F9.2°C 97% 10.6 mph WNW17.1 kmh WNW 15.9 mph25.6 kmh 29.71 in1006.1 mb 0.00 in0.0 mm 0.00 in0.0 mm 0.23 in5.8 mm
09:50 AM 49.5°F9.7°C 48.9°F9.4°C 98% 11.9 mph WNW19.2 kmh WNW 17.4 mph28.0 kmh 29.70 in1005.8 mb 0.00 in0.0 mm 0.00 in0.0 mm 0.23 in5.8 mm
09:45 AM 49.3°F9.6°C 48.7°F9.3°C 98% 12.0 mph WNW19.3 kmh WNW 17.4 mph28.0 kmh 29.70 in1005.8 mb 0.00 in0.0 mm 0.00 in0.0 mm 0.23 in5.8 mm
09:40 AM 49.3°F9.6°C 49.0°F9.4°C 99% 12.1 mph WNW19.5 kmh WNW 17.4 mph28.0 kmh 29.71 in1006.1 mb 0.00 in0.0 mm 0.00 in0.0 mm 0.23 in5.8 mm
09:35 AM 49.3°F9.6°C 49.0°F9.4°C 99% 14.0 mph WNW22.5 kmh WNW 18.3 mph29.5 kmh 29.70 in1005.8 mb 0.00 in0.0 mm 0.00 in0.0 mm 0.23 in5.8 mm
09:30 AM 49.5°F9.7°C 49.2°F9.6°C 99% 11.7 mph WNW18.8 kmh WNW 18.3 mph29.5 kmh 29.70 in1005.8 mb 0.00 in0.0 mm 0.00 in0.0 mm 0.23 in5.8 mm
09:25 AM 49.5°F9.7°C 49.2°F9.6°C 99% 8.0 mph NW12.9 kmh NW 14.5 mph23.3 kmh 29.70 in1005.8 mb 0.00 in0.0 mm 0.00 in0.0 mm 0.23 in5.8 mm
09:20 AM 49.5°F9.7°C 49.2°F9.6°C 99% 7.8 mph WNW12.6 kmh WNW 11.4 mph18.3 kmh 29.70 in1005.8 mb 0.00 in0.0 mm 0.00 in0.0 mm 0.23 in5.8 mm
09:15 AM 49.5°F9.7°C 49.2°F9.6°C 99% 9.5 mph WNW15.3 kmh WNW 14.5 mph23.3 kmh 29.70 in1005.8 mb 0.00 in0.0 mm 0.00 in0.0 mm 0.23 in5.8 mm
09:10 AM 49.3°F9.6°C 49.0°F9.4°C 99% 9.2 mph WNW14.8 kmh WNW 14.5 mph23.3 kmh 29.70 in1005.8 mb 0.00 in0.0 mm 0.00 in0.0 mm 0.23 in5.8 mm
09:05 AM 49.3°F9.6°C 49.0°F9.4°C 99% 8.4 mph NW13.5 kmh NW 13.6 mph21.9 kmh 29.69 in1005.4 mb 0.00 in0.0 mm 0.00 in0.0 mm 0.23 in5.8 mm
09:00 AM 49.3°F9.6°C 49.0°F9.4°C 99% 8.0 mph NW12.9 kmh NW 13.6 mph21.9 kmh 29.69 in1005.4 mb 0.00 in0.0 mm 0.00 in0.0 mm 0.23 in5.8 mm
08:55 AM 49.3°F9.6°C 49.0°F9.4°C 99% 7.4 mph WNW11.9 kmh WNW 9.8 mph15.8 kmh 29.69 in1005.4 mb 0.00 in0.0 mm 0.00 in0.0 mm 0.23 in5.8 mm
08:50 AM 49.3°F9.6°C 49.0°F9.4°C 99% 8.7 mph W14.0 kmh W 11.4 mph18.3 kmh 29.69 in1005.4 mb 0.00 in0.0 mm 0.00 in0.0 mm 0.23 in5.8 mm
08:45 AM 49.1°F9.5°C 48.8°F9.3°C 99% 8.5 mph WNW13.7 kmh WNW 11.4 mph18.3 kmh 29.69 in1005.4 mb 0.00 in0.0 mm 0.00 in0.0 mm 0.23 in5.8 mm
08:40 AM 48.9°F9.4°C 48.7°F9.3°C 99% 7.6 mph NW12.2 kmh NW 9.2 mph14.8 kmh 29.69 in1005.4 mb 0.00 in0.0 mm 0.00 in0.0 mm 0.23 in5.8 mm
08:35 AM 48.9°F9.4°C 48.7°F9.3°C 99% 8.0 mph NW12.9 kmh NW 10.7 mph17.2 kmh 29.68 in1005.1 mb 0.00 in0.0 mm 0.00 in0.0 mm 0.23 in5.8 mm
08:30 AM 48.9°F9.4°C 48.7°F9.3°C 99% 8.5 mph WNW13.7 kmh WNW 10.7 mph17.2 kmh 29.69 in1005.4 mb 0.00 in0.0 mm 0.00 in0.0 mm 0.23 in5.8 mm
08:25 AM 48.9°F9.4°C 48.4°F9.1°C 98% 9.3 mph WNW15.0 kmh WNW 15.2 mph24.5 kmh 29.68 in1005.1 mb 0.00 in0.0 mm 0.00 in0.0 mm 0.23 in5.8 mm
08:20 AM 48.9°F9.4°C 48.4°F9.1°C 98% 10.8 mph WNW17.4 kmh WNW 15.2 mph24.5 kmh 29.68 in1005.1 mb 0.00 in0.0 mm 0.00 in0.0 mm 0.23 in5.8 mm
08:15 AM 48.9°F9.4°C 48.4°F9.1°C 98% 12.5 mph WNW20.1 kmh WNW 19.0 mph30.6 kmh 29.68 in1005.1 mb 0.00 in0.0 mm 0.00 in0.0 mm 0.23 in5.8 mm
08:10 AM 48.9°F9.4°C 48.4°F9.1°C 98% 15.0 mph WNW24.1 kmh WNW 22.8 mph36.7 kmh 29.67 in1004.7 mb 0.00 in0.0 mm 0.00 in0.0 mm 0.23 in5.8 mm
08:05 AM 48.9°F9.4°C 48.4°F9.1°C 98% 14.2 mph WNW22.9 kmh WNW 22.8 mph36.7 kmh 29.67 in1004.7 mb 0.00 in0.0 mm 0.00 in0.0 mm 0.23 in5.8 mm
08:00 AM 48.9°F9.4°C 48.7°F9.3°C 99% 13.1 mph WNW21.1 kmh WNW 23.5 mph37.8 kmh 29.67 in1004.7 mb 0.00 in0.0 mm 0.00 in0.0 mm 0.23 in5.8 mm
07:55 AM 49.1°F9.5°C 48.6°F9.2°C 98% 11.8 mph WNW19.0 kmh WNW 23.5 mph37.8 kmh 29.67 in1004.7 mb 0.00 in0.0 mm 0.00 in0.0 mm 0.23 in5.8 mm
07:50 AM 49.1°F9.5°C 48.8°F9.3°C 99% 8.0 mph WNW12.9 kmh WNW 11.4 mph18.3 kmh 29.66 in1004.4 mb 0.00 in0.0 mm 0.00 in0.0 mm 0.23 in5.8 mm
07:45 AM 49.1°F9.5°C 48.8°F9.3°C 99% 8.1 mph WNW13.0 kmh WNW 12.1 mph19.5 kmh 29.67 in1004.7 mb 0.00 in0.0 mm 0.00 in0.0 mm 0.23 in5.8 mm
07:40 AM 49.1°F9.5°C 48.8°F9.3°C 99% 8.7 mph WNW14.0 kmh WNW 12.1 mph19.5 kmh 29.66 in1004.4 mb 0.00 in0.0 mm 0.00 in0.0 mm 0.23 in5.8 mm
07:35 AM 48.9°F9.4°C 48.7°F9.3°C 99% 10.7 mph WNW17.2 kmh WNW 16.8 mph27.0 kmh 29.66 in1004.4 mb 0.00 in0.0 mm 0.00 in0.0 mm 0.23 in5.8 mm
07:30 AM 48.9°F9.4°C 48.4°F9.1°C 98% 12.9 mph WNW20.8 kmh WNW 16.8 mph27.0 kmh 29.65 in1004.1 mb 0.02 in0.5 mm 0.00 in0.0 mm 0.23 in5.8 mm
07:25 AM 48.7°F9.3°C 48.5°F9.2°C 99% 12.6 mph WNW20.3 kmh WNW 15.2 mph24.5 kmh 29.65 in1004.1 mb 0.02 in0.5 mm 0.00 in0.0 mm 0.23 in5.8 mm
07:20 AM 48.7°F9.3°C 48.5°F9.2°C 99% 11.5 mph W18.5 kmh W 15.2 mph24.5 kmh 29.65 in1004.1 mb 0.03 in0.8 mm 0.00 in0.0 mm 0.23 in5.8 mm
07:15 AM 48.7°F9.3°C 48.5°F9.2°C 99% 13.0 mph NW20.9 kmh NW 18.3 mph29.5 kmh 29.65 in1004.1 mb 0.03 in0.8 mm 0.00 in0.0 mm 0.23 in5.8 mm
07:10 AM 48.6°F9.2°C 48.3°F9.1°C 99% 15.9 mph WNW25.6 kmh WNW 20.6 mph33.2 kmh 29.65 in1004.1 mb 0.03 in0.8 mm 0.00 in0.0 mm 0.23 in5.8 mm
07:05 AM 48.6°F9.2°C 48.3°F9.1°C 99% 15.7 mph W25.3 kmh W 20.6 mph33.2 kmh 29.64 in1003.7 mb 0.03 in0.8 mm 0.00 in0.0 mm 0.23 in5.8 mm
07:00 AM 48.4°F9.1°C 48.1°F8.9°C 99% 14.3 mph NW23.0 kmh NW 17.4 mph28.0 kmh 29.64 in1003.7 mb 0.05 in1.3 mm 0.00 in0.0 mm 0.23 in5.8 mm
06:55 AM 48.4°F9.1°C 48.1°F8.9°C 99% 11.7 mph NW18.8 kmh NW 16.8 mph27.0 kmh 29.64 in1003.7 mb 0.06 in1.5 mm 0.00 in0.0 mm 0.23 in5.8 mm
06:50 AM 48.6°F9.2°C 48.3°F9.1°C 99% 10.9 mph NW17.5 kmh NW 15.9 mph25.6 kmh 29.63 in1003.4 mb 0.06 in1.5 mm 0.00 in0.0 mm 0.23 in5.8 mm
06:45 AM 48.4°F9.1°C 48.1°F8.9°C 99% 12.0 mph NW19.3 kmh NW 15.9 mph25.6 kmh 29.63 in1003.4 mb 0.06 in1.5 mm 0.00 in0.0 mm 0.23 in5.8 mm
06:40 AM 48.6°F9.2°C 48.3°F9.1°C 99% 10.5 mph WNW16.9 kmh WNW 14.5 mph23.3 kmh 29.63 in1003.4 mb 0.08 in2.0 mm 0.00 in0.0 mm 0.23 in5.8 mm
06:35 AM 48.4°F9.1°C 48.1°F8.9°C 99% 8.1 mph NW13.0 kmh NW 14.5 mph23.3 kmh 29.62 in1003.0 mb 0.08 in2.0 mm 0.00 in0.0 mm 0.23 in5.8 mm
06:30 AM 48.2°F9.0°C 47.9°F8.8°C 99% 6.0 mph NW9.7 kmh NW 9.8 mph15.8 kmh 29.62 in1003.0 mb 0.08 in2.0 mm 0.00 in0.0 mm 0.21 in5.3 mm
06:25 AM 48.0°F8.9°C 47.8°F8.8°C 99% 4.5 mph NW7.2 kmh NW 6.9 mph11.1 kmh 29.62 in1003.0 mb 0.09 in2.3 mm 0.12 in3.0 mm 0.21 in5.3 mm
06:20 AM 47.8°F8.8°C 47.6°F8.7°C 99% 4.5 mph WNW7.2 kmh WNW 7.6 mph12.2 kmh 29.62 in1003.0 mb 0.08 in2.0 mm 0.00 in0.0 mm 0.20 in5.1 mm
06:15 AM 47.8°F8.8°C 47.6°F8.7°C 99% 6.1 mph WNW9.8 kmh WNW 11.4 mph18.3 kmh 29.62 in1003.0 mb 0.09 in2.3 mm 0.00 in0.0 mm 0.20 in5.1 mm
06:10 AM 47.7°F8.7°C 47.4°F8.6°C 99% 4.9 mph NW7.9 kmh NW 11.4 mph18.3 kmh 29.61 in1002.7 mb 0.09 in2.3 mm 0.00 in0.0 mm 0.20 in5.1 mm
06:05 AM 47.5°F8.6°C 47.2°F8.4°C 99% 2.3 mph NW3.7 kmh NW 4.5 mph7.2 kmh 29.61 in1002.7 mb 0.11 in2.8 mm 0.00 in0.0 mm 0.20 in5.1 mm
06:00 AM 47.5°F8.6°C 47.2°F8.4°C 99% 2.0 mph NNW3.2 kmh NNW 2.2 mph3.5 kmh 29.61 in1002.7 mb 0.11 in2.8 mm 0.00 in0.0 mm 0.18 in4.6 mm
05:55 AM 47.5°F8.6°C 47.2°F8.4°C 99% 1.8 mph N2.9 kmh N 2.2 mph3.5 kmh 29.61 in1002.7 mb 0.11 in2.8 mm 0.00 in0.0 mm 0.17 in4.3 mm
05:50 AM 47.5°F8.6°C 47.2°F8.4°C 99% 0.9 mph NW1.4 kmh NW 2.2 mph3.5 kmh 29.61 in1002.7 mb 0.12 in3.0 mm 0.00 in0.0 mm 0.17 in4.3 mm
05:45 AM 47.5°F8.6°C 47.2°F8.4°C 99% 0.3 mph NW0.5 kmh NW 0.7 mph1.1 kmh 29.60 in1002.4 mb 0.12 in3.0 mm 0.00 in0.0 mm 0.17 in4.3 mm
05:40 AM 47.5°F8.6°C 47.2°F8.4°C 99% 0.7 mph NNW1.1 kmh NNW 2.2 mph3.5 kmh 29.60 in1002.4 mb 0.12 in3.0 mm 0.00 in0.0 mm 0.15 in3.8 mm
05:35 AM 47.5°F8.6°C 47.2°F8.4°C 99% 1.4 mph NNW2.3 kmh NNW 2.2 mph3.5 kmh 29.60 in1002.4 mb 0.14 in3.6 mm 0.24 in6.1 mm 0.15 in3.8 mm
05:30 AM 47.3°F8.5°C 47.0°F8.3°C 99% 1.8 mph N2.9 kmh N 3.1 mph5.0 kmh 29.60 in1002.4 mb 0.12 in3.0 mm 0.12 in3.0 mm 0.14 in3.6 mm
05:25 AM 47.3°F8.5°C 47.0°F8.3°C 99% 1.9 mph N3.1 kmh N 3.1 mph5.0 kmh 29.59 in1002.0 mb 0.11 in2.8 mm 0.00 in0.0 mm 0.12 in3.0 mm
05:20 AM 47.3°F8.5°C 47.0°F8.3°C 99% 1.4 mph N2.3 kmh N 3.1 mph5.0 kmh 29.59 in1002.0 mb 0.11 in2.8 mm 0.24 in6.1 mm 0.12 in3.0 mm
05:15 AM 47.3°F8.5°C 47.0°F8.3°C 99% 1.0 mph N1.6 kmh N 2.2 mph3.5 kmh 29.59 in1002.0 mb 0.09 in2.3 mm 0.00 in0.0 mm 0.11 in2.8 mm
05:10 AM 47.3°F8.5°C 47.0°F8.3°C 99% 1.6 mph N2.6 kmh N 2.2 mph3.5 kmh 29.59 in1002.0 mb 0.11 in2.8 mm 0.24 in6.1 mm 0.11 in2.8 mm
05:05 AM 47.1°F8.4°C 46.9°F8.3°C 99% 2.1 mph N3.4 kmh N 2.2 mph3.5 kmh 29.59 in1002.0 mb 0.09 in2.3 mm 0.12 in3.0 mm 0.09 in2.3 mm
05:00 AM 47.3°F8.5°C 47.0°F8.3°C 99% 2.2 mph N3.5 kmh N 3.1 mph5.0 kmh 29.59 in1002.0 mb 0.08 in2.0 mm 0.02 in0.5 mm 0.08 in2.0 mm
04:55 AM 47.3°F8.5°C 47.0°F8.3°C 99% 2.2 mph NNW3.5 kmh NNW 3.1 mph5.0 kmh 29.59 in1002.0 mb 0.06 in1.5 mm 0.12 in3.0 mm 0.06 in1.5 mm
04:50 AM 47.3°F8.5°C 47.0°F8.3°C 99% 1.4 mph NW2.3 kmh NW 2.2 mph3.5 kmh 29.59 in1002.0 mb 0.05 in1.3 mm 0.00 in0.0 mm 0.05 in1.3 mm
04:45 AM 47.3°F8.5°C 47.0°F8.3°C 99% 0.4 mph N0.6 kmh N 2.2 mph3.5 kmh 29.58 in1001.7 mb 0.05 in1.3 mm 0.24 in6.1 mm 0.05 in1.3 mm
04:40 AM 47.3°F8.5°C 47.0°F8.3°C 99% 0.4 mph NW0.6 kmh NW 1.6 mph2.6 kmh 29.58 in1001.7 mb 0.03 in0.8 mm 0.12 in3.0 mm 0.03 in0.8 mm
04:35 AM 47.3°F8.5°C 47.0°F8.3°C 99% 0.9 mph NW1.4 kmh NW 2.2 mph3.5 kmh 29.58 in1001.7 mb 0.02 in0.5 mm 0.00 in0.0 mm 0.02 in0.5 mm
04:30 AM 47.1°F8.4°C 46.9°F8.3°C 99% 1.3 mph NNW2.1 kmh NNW 2.2 mph3.5 kmh 29.58 in1001.7 mb 0.02 in0.5 mm 0.00 in0.0 mm 0.02 in0.5 mm
04:25 AM 47.1°F8.4°C 46.9°F8.3°C 99% 1.4 mph NW2.3 kmh NW 2.2 mph3.5 kmh 29.57 in1001.4 mb 0.02 in0.5 mm 0.00 in0.0 mm 0.02 in0.5 mm
04:20 AM 47.1°F8.4°C 46.9°F8.3°C 99% 1.3 mph NNW2.1 kmh NNW 3.1 mph5.0 kmh 29.57 in1001.4 mb 0.02 in0.5 mm 0.00 in0.0 mm 0.02 in0.5 mm
04:15 AM 47.1°F8.4°C 46.9°F8.3°C 99% 2.0 mph N3.2 kmh N 3.1 mph5.0 kmh 29.57 in1001.4 mb 0.02 in0.5 mm 0.24 in6.1 mm 0.02 in0.5 mm
04:10 AM 47.1°F8.4°C 46.9°F8.3°C 99% 2.0 mph NNW3.2 kmh NNW 3.1 mph5.0 kmh 29.57 in1001.4 mb 0.00 in0.0 mm 0.00 in0.0 mm 0.00 in0.0 mm
04:05 AM 47.1°F8.4°C 46.9°F8.3°C 99% 1.8 mph WNW2.9 kmh WNW 2.2 mph3.5 kmh 29.57 in1001.4 mb 0.00 in0.0 mm 0.00 in0.0 mm 0.00 in0.0 mm
04:00 AM 47.1°F8.4°C 46.9°F8.3°C 99% 1.9 mph WNW3.1 kmh WNW 3.1 mph5.0 kmh 29.57 in1001.4 mb 0.00 in0.0 mm 0.00 in0.0 mm 0.00 in0.0 mm
03:55 AM 47.1°F8.4°C 46.9°F8.3°C 99% 2.3 mph NW3.7 kmh NW 3.8 mph6.1 kmh 29.57 in1001.4 mb 0.00 in0.0 mm 0.00 in0.0 mm 0.00 in0.0 mm
03:50 AM 47.1°F8.4°C 46.9°F8.3°C 99% 2.2 mph WNW3.5 kmh WNW 3.8 mph6.1 kmh 29.57 in1001.4 mb 0.00 in0.0 mm 0.00 in0.0 mm 0.00 in0.0 mm
03:45 AM 47.1°F8.4°C 46.9°F8.3°C 99% 2.0 mph WNW3.2 kmh WNW 3.8 mph6.1 kmh 29.57 in1001.4 mb 0.00 in0.0 mm 0.00 in0.0 mm 0.00 in0.0 mm
03:40 AM 46.9°F8.3°C 46.7°F8.2°C 99% 2.9 mph NW4.7 kmh NW 4.5 mph7.2 kmh 29.57 in1001.4 mb 0.00 in0.0 mm 0.00 in0.0 mm 0.00 in0.0 mm
03:35 AM 46.9°F8.3°C 46.7°F8.2°C 99% 3.6 mph NW5.8 kmh NW 4.5 mph7.2 kmh 29.57 in1001.4 mb 0.00 in0.0 mm 0.00 in0.0 mm 0.00 in0.0 mm
03:30 AM 46.9°F8.3°C 46.7°F8.2°C 99% 3.2 mph NW5.1 kmh NW 4.5 mph7.2 kmh 29.56 in1001.0 mb 0.00 in0.0 mm 0.00 in0.0 mm 0.00 in0.0 mm
03:25 AM 46.9°F8.3°C 46.7°F8.2°C 99% 3.2 mph WNW5.1 kmh WNW 5.4 mph8.7 kmh 29.56 in1001.0 mb 0.00 in0.0 mm 0.00 in0.0 mm 0.00 in0.0 mm
03:20 AM 47.1°F8.4°C 46.9°F8.3°C 99% 2.8 mph NW4.5 kmh NW 5.4 mph8.7 kmh 29.56 in1001.0 mb 0.00 in0.0 mm 0.00 in0.0 mm 0.00 in0.0 mm
03:15 AM 47.1°F8.4°C 46.9°F8.3°C 99% 3.1 mph NW5.0 kmh NW 5.4 mph8.7 kmh 29.57 in1001.4 mb 0.00 in0.0 mm 0.00 in0.0 mm 0.00 in0.0 mm
03:10 AM 47.1°F8.4°C 46.9°F8.3°C 99% 4.2 mph WNW6.8 kmh WNW 5.4 mph8.7 kmh 29.57 in1001.4 mb 0.00 in0.0 mm 0.00 in0.0 mm 0.00 in0.0 mm
03:05 AM 47.1°F8.4°C 46.9°F8.3°C 99% 4.3 mph WNW6.9 kmh WNW 6.0 mph9.7 kmh 29.56 in1001.0 mb 0.00 in0.0 mm 0.00 in0.0 mm 0.00 in0.0 mm
03:00 AM 47.1°F8.4°C 46.9°F8.3°C 99% 4.3 mph NW6.9 kmh NW 6.0 mph9.7 kmh 29.57 in1001.4 mb 0.00 in0.0 mm 0.00 in0.0 mm 0.00 in0.0 mm
02:55 AM 47.1°F8.4°C 46.9°F8.3°C 99% 4.3 mph NW6.9 kmh NW 6.0 mph9.7 kmh 29.56 in1001.0 mb 0.00 in0.0 mm 0.00 in0.0 mm 0.00 in0.0 mm
02:50 AM 47.1°F8.4°C 46.9°F8.3°C 99% 3.9 mph NW6.3 kmh NW 6.0 mph9.7 kmh 29.57 in1001.4 mb 0.00 in0.0 mm 0.00 in0.0 mm 0.00 in0.0 mm
02:45 AM 46.9°F8.3°C 46.7°F8.2°C 99% 3.9 mph WNW6.3 kmh WNW 6.0 mph9.7 kmh 29.57 in1001.4 mb 0.00 in0.0 mm 0.00 in0.0 mm 0.00 in0.0 mm
02:40 AM 46.9°F8.3°C 46.7°F8.2°C 99% 5.3 mph WNW8.5 kmh WNW 7.6 mph12.2 kmh 29.56 in1001.0 mb 0.00 in0.0 mm 0.00 in0.0 mm 0.00 in0.0 mm
02:35 AM 47.1°F8.4°C 46.9°F8.3°C 99% 5.6 mph WNW9.0 kmh WNW 7.6 mph12.2 kmh 29.57 in1001.4 mb 0.00 in0.0 mm 0.00 in0.0 mm 0.00 in0.0 mm
02:30 AM 47.1°F8.4°C 46.9°F8.3°C 99% 6.1 mph WNW9.8 kmh WNW 7.6 mph12.2 kmh 29.56 in1001.0 mb 0.00 in0.0 mm 0.00 in0.0 mm 0.00 in0.0 mm
02:25 AM 47.1°F8.4°C 46.9°F8.3°C 99% 6.3 mph NW10.1 kmh NW 7.6 mph12.2 kmh 29.56 in1001.0 mb 0.00 in0.0 mm 0.00 in0.0 mm 0.00 in0.0 mm
02:20 AM 47.1°F8.4°C 46.9°F8.3°C 99% 6.3 mph WNW10.1 kmh WNW 7.6 mph12.2 kmh 29.56 in1001.0 mb 0.00 in0.0 mm 0.00 in0.0 mm 0.00 in0.0 mm
02:15 AM 47.1°F8.4°C 46.9°F8.3°C 99% 6.3 mph NW10.1 kmh NW 8.3 mph13.4 kmh 29.57 in1001.4 mb 0.00 in0.0 mm 0.00 in0.0 mm 0.00 in0.0 mm
02:10 AM 47.1°F8.4°C 46.9°F8.3°C 99% 5.5 mph WNW8.9 kmh WNW 8.3 mph13.4 kmh 29.57 in1001.4 mb 0.00 in0.0 mm 0.00 in0.0 mm 0.00 in0.0 mm
02:05 AM 47.1°F8.4°C 46.9°F8.3°C 99% 4.7 mph NW7.6 kmh NW 6.0 mph9.7 kmh 29.57 in1001.4 mb 0.00 in0.0 mm 0.00 in0.0 mm 0.00 in0.0 mm
02:00 AM 47.1°F8.4°C 46.9°F8.3°C 99% 3.7 mph NW6.0 kmh NW 6.0 mph9.7 kmh 29.57 in1001.4 mb 0.00 in0.0 mm 0.00 in0.0 mm 0.00 in0.0 mm
01:55 AM 47.1°F8.4°C 46.9°F8.3°C 99% 2.6 mph NW4.2 kmh NW 4.5 mph7.2 kmh 29.57 in1001.4 mb 0.00 in0.0 mm 0.00 in0.0 mm 0.00 in0.0 mm
01:50 AM 47.3°F8.5°C 47.0°F8.3°C 99% 2.2 mph NW3.5 kmh NW 3.1 mph5.0 kmh 29.57 in1001.4 mb 0.00 in0.0 mm 0.00 in0.0 mm 0.00 in0.0 mm
01:45 AM 47.3°F8.5°C 47.0°F8.3°C 99% 2.2 mph NW3.5 kmh NW 3.1 mph5.0 kmh 29.56 in1001.0 mb 0.00 in0.0 mm 0.00 in0.0 mm 0.00 in0.0 mm
01:40 AM 47.3°F8.5°C 47.0°F8.3°C 99% 2.2 mph NW3.5 kmh NW 3.1 mph5.0 kmh 29.56 in1001.0 mb 0.00 in0.0 mm 0.00 in0.0 mm 0.00 in0.0 mm
01:35 AM 47.3°F8.5°C 47.0°F8.3°C 99% 2.2 mph WNW3.5 kmh WNW 3.1 mph5.0 kmh 29.56 in1001.0 mb 0.00 in0.0 mm 0.00 in0.0 mm 0.00 in0.0 mm
01:30 AM 47.3°F8.5°C 47.0°F8.3°C 99% 2.2 mph W3.5 kmh W 3.1 mph5.0 kmh 29.57 in1001.4 mb 0.00 in0.0 mm 0.00 in0.0 mm 0.00 in0.0 mm
01:25 AM 47.3°F8.5°C 47.0°F8.3°C 99% 2.0 mph W3.2 kmh W 3.1 mph5.0 kmh 29.57 in1001.4 mb 0.00 in0.0 mm 0.00 in0.0 mm 0.00 in0.0 mm
01:20 AM 47.3°F8.5°C 47.0°F8.3°C 99% 2.0 mph WNW3.2 kmh WNW 3.1 mph5.0 kmh 29.56 in1001.0 mb 0.00 in0.0 mm 0.00 in0.0 mm 0.00 in0.0 mm
01:15 AM 47.3°F8.5°C 47.0°F8.3°C 99% 2.3 mph NW3.7 kmh NW 3.8 mph6.1 kmh 29.56 in1001.0 mb 0.00 in0.0 mm 0.00 in0.0 mm 0.00 in0.0 mm
01:10 AM 47.3°F8.5°C 47.0°F8.3°C 99% 2.3 mph NW3.7 kmh NW 3.8 mph6.1 kmh 29.56 in1001.0 mb 0.00 in0.0 mm 0.00 in0.0 mm 0.00 in0.0 mm
01:05 AM 47.3°F8.5°C 47.0°F8.3°C 99% 2.7 mph NW4.3 kmh NW 4.5 mph7.2 kmh 29.57 in1001.4 mb 0.00 in0.0 mm 0.00 in0.0 mm 0.00 in0.0 mm
01:00 AM 47.3°F8.5°C 47.0°F8.3°C 99% 2.7 mph NW4.3 kmh NW 4.5 mph7.2 kmh 29.57 in1001.4 mb 0.00 in0.0 mm 0.00 in0.0 mm 0.00 in0.0 mm
12:55 AM 47.3°F8.5°C 47.0°F8.3°C 99% 2.5 mph NW4.0 kmh NW 3.1 mph5.0 kmh 29.57 in1001.4 mb 0.00 in0.0 mm 0.00 in0.0 mm 0.00 in0.0 mm
12:50 AM 47.3°F8.5°C 47.0°F8.3°C 99% 2.1 mph NW3.4 kmh NW 3.1 mph5.0 kmh 29.56 in1001.0 mb 0.00 in0.0 mm 0.00 in0.0 mm 0.00 in0.0 mm
12:45 AM 47.3°F8.5°C 47.0°F8.3°C 99% 2.4 mph NW3.9 kmh NW 3.8 mph6.1 kmh 29.56 in1001.0 mb 0.00 in0.0 mm 0.00 in0.0 mm 0.00 in0.0 mm
12:40 AM 47.3°F8.5°C 46.8°F8.2°C 98% 2.7 mph NW4.3 kmh NW 3.8 mph6.1 kmh 29.56 in1001.0 mb 0.00 in0.0 mm 0.00 in0.0 mm 0.00 in0.0 mm
12:35 AM 47.5°F8.6°C 46.9°F8.3°C 98% 2.4 mph NNW3.9 kmh NNW 3.1 mph5.0 kmh 29.55 in1000.7 mb 0.00 in0.0 mm 0.00 in0.0 mm 0.00 in0.0 mm
12:30 AM 47.5°F8.6°C 46.7°F8.2°C 97% 2.4 mph NW3.9 kmh NW 3.1 mph5.0 kmh 29.56 in1001.0 mb 0.00 in0.0 mm 0.00 in0.0 mm 0.00 in0.0 mm
12:25 AM 47.5°F8.6°C 46.7°F8.2°C 97% 2.1 mph NW3.4 kmh NW 3.8 mph6.1 kmh 29.56 in1001.0 mb 0.00 in0.0 mm 0.00 in0.0 mm 0.00 in0.0 mm
12:20 AM 47.5°F8.6°C 46.7°F8.2°C 97% 1.8 mph NW2.9 kmh NW 3.8 mph6.1 kmh 29.56 in1001.0 mb 0.00 in0.0 mm 0.00 in0.0 mm 0.00 in0.0 mm
12:15 AM 47.5°F8.6°C 46.7°F8.2°C 97% 1.8 mph WNW2.9 kmh WNW 2.2 mph3.5 kmh 29.56 in1001.0 mb 0.00 in0.0 mm 0.00 in0.0 mm 0.00 in0.0 mm
12:10 AM 47.5°F8.6°C 46.7°F8.2°C 97% 2.0 mph WNW3.2 kmh WNW 2.2 mph3.5 kmh 29.56 in1001.0 mb 0.00 in0.0 mm 0.00 in0.0 mm 0.00 in0.0 mm
12:05 AM 47.5°F8.6°C 46.7°F8.2°C 97% 2.2 mph NW3.5 kmh NW 3.1 mph5.0 kmh 29.56 in1001.0 mb 0.00 in0.0 mm 0.00 in0.0 mm 0.00 in0.0 mm
12:00 AM 47.5°F8.6°C 46.7°F8.2°C 97% 2.3 mph NW3.7 kmh NW 3.1 mph5.0 kmh 29.55 in1000.7 mb 0.00 in0.0 mm 0.00 in0.0 mm 0.00 in0.0 mm